Claycomo, Missouri
Current Conditions -  °F | °C
As of 3:54 AM on Sunday 23 Nov 2014 (Local Time) from KMKC Reporting Station
Overcast Overcast  
Wind Chill: 55°   Ceiling: 1600
Heat Index: 55°   Visibility: 10mi
Dew Point: 51°   Wind: 7mph
Humidity: 86%   Direction: 170°S
Pressure: 29.58"   Gusts: NA
Location:  39.2065°N, 94.5176°W
Report Text: KMKC 230954Z 17006KT 10SM OVC016 13/11 A2958 RMK AO2 RAE24 SLP014 P0000 T01280106
Loading
Personal Weather Stations






























Interactive Weather Map New forecast layout! Learn more

10-Day Weather Forecast

Advertisements
Track Severe Weather on mobile